sensor_id;sensor_type;location;lat;lon;timestamp;pressure;altitude;pressure_sealevel;temperature;humidity
62980;BME280;49075;53.988;27.678;2022-10-17T00:04:22;994.8;;;8.7;66.3
62980;BME280;49075;53.988;27.678;2022-10-17T00:09:28;994.8;;;8.5;68.8
62980;BME280;49075;53.988;27.678;2022-10-17T00:14:28;994.9;;;8.4;69.3
62980;BME280;49075;53.988;27.678;2022-10-17T00:19:30;994.9;;;8.3;70.7
62980;BME280;49075;53.988;27.678;2022-10-17T00:24:02;994.9;;;8.1;72.2
62980;BME280;49075;53.988;27.678;2022-10-17T00:29:02;994.9;;;8;73.3
62980;BME280;49075;53.988;27.678;2022-10-17T00:33:52;994.9;;;7.9;73.4
62980;BME280;49075;53.988;27.678;2022-10-17T00:39:26;994.9;;;8;73.3
62980;BME280;49075;53.988;27.678;2022-10-17T00:45:04;994.9;;;8.1;72.5
62980;BME280;49075;53.988;27.678;2022-10-17T00:49:31;994.9;;;8;72.7
62980;BME280;49075;53.988;27.678;2022-10-17T00:54:31;994.9;;;8.2;71.9
62980;BME280;49075;53.988;27.678;2022-10-17T00:59:31;994.9;;;8.1;72.1
62980;BME280;49075;53.988;27.678;2022-10-17T01:04:30;995;;;8.1;72.3
62980;BME280;49075;53.988;27.678;2022-10-17T01:09:28;995;;;8.1;71.8
62980;BME280;49075;53.988;27.678;2022-10-17T01:14:12;995;;;8.1;72.4
62980;BME280;49075;53.988;27.678;2022-10-17T01:19:33;995;;;8.2;71.7
62980;BME280;49075;53.988;27.678;2022-10-17T01:29:32;995;;;8.2;71.2
62980;BME280;49075;53.988;27.678;2022-10-17T01:33:54;995;;;8.2;71.7
62980;BME280;49075;53.988;27.678;2022-10-17T01:38:51;995;;;8.3;71
62980;BME280;49075;53.988;27.678;2022-10-17T01:44:02;995;;;8.3;71.4
62980;BME280;49075;53.988;27.678;2022-10-17T01:49:02;995;;;8.3;71.1
62980;BME280;49075;53.988;27.678;2022-10-17T01:54:10;995;;;8.4;71.1
62980;BME280;49075;53.988;27.678;2022-10-17T01:59:34;995;;;8.4;70.8
62980;BME280;49075;53.988;27.678;2022-10-17T02:04:12;995;;;8.3;71.4
62980;BME280;49075;53.988;27.678;2022-10-17T02:09:30;995;;;8.4;70.8
62980;BME280;49075;53.988;27.678;2022-10-17T02:14:12;995;;;8.3;71.1
62980;BME280;49075;53.988;27.678;2022-10-17T02:19:33;995;;;8.3;71
62980;BME280;49075;53.988;27.678;2022-10-17T02:24:02;994.9;;;8.1;71.9
62980;BME280;49075;53.988;27.678;2022-10-17T02:29:31;994.9;;;8;72.4
62980;BME280;49075;53.988;27.678;2022-10-17T02:34:00;994.8;;;8;72.1
62980;BME280;49075;53.988;27.678;2022-10-17T02:39:02;994.9;;;8;72.7
62980;BME280;49075;53.988;27.678;2022-10-17T02:44:30;994.9;;;8.2;71.8
62980;BME280;49075;53.988;27.678;2022-10-17T02:49:00;995;;;8.1;72.7
62980;BME280;49075;53.988;27.678;2022-10-17T02:54:04;994.9;;;8.2;72
62980;BME280;49075;53.988;27.678;2022-10-17T02:59:36;995;;;8.2;72.3
62980;BME280;49075;53.988;27.678;2022-10-17T03:04:24;995;;;8.3;71.8
62980;BME280;49075;53.988;27.678;2022-10-17T03:09:32;995;;;8.3;72.1
62980;BME280;49075;53.988;27.678;2022-10-17T03:14:00;995;;;8.4;71.9
62980;BME280;49075;53.988;27.678;2022-10-17T03:19:34;995;;;8.4;71.9
62980;BME280;49075;53.988;27.678;2022-10-17T03:24:34;995.1;;;8.5;71.4
62980;BME280;49075;53.988;27.678;2022-10-17T03:29:02;995.1;;;8.5;71.8
62980;BME280;49075;53.988;27.678;2022-10-17T03:34:08;995;;;8.6;71.3
62980;BME280;49075;53.988;27.678;2022-10-17T03:39:32;995.1;;;8.6;71.6
62980;BME280;49075;53.988;27.678;2022-10-17T03:44:10;995.2;;;8.7;71.3
62980;BME280;49075;53.988;27.678;2022-10-17T03:49:34;995.3;;;8.7;71.4
62980;BME280;49075;53.988;27.678;2022-10-17T03:54:12;995.4;;;8.6;71.7
62980;BME280;49075;53.988;27.678;2022-10-17T03:59:11;995.6;;;8.6;71.8
62980;BME280;49075;53.988;27.678;2022-10-17T04:04:00;995.5;;;8.7;71.7
62980;BME280;49075;53.988;27.678;2022-10-17T04:09:14;995.5;;;8.8;71.3
62980;BME280;49075;53.988;27.678;2022-10-17T04:14:02;995.5;;;8.7;71.8
62980;BME280;49075;53.988;27.678;2022-10-17T04:19:12;995.5;;;8.7;72
62980;BME280;49075;53.988;27.678;2022-10-17T04:24:10;995.5;;;8.8;71.7
62980;BME280;49075;53.988;27.678;2022-10-17T04:29:36;995.5;;;8.7;71.9
62980;BME280;49075;53.988;27.678;2022-10-17T04:34:02;995.5;;;8.7;72
62980;BME280;49075;53.988;27.678;2022-10-17T04:39:34;995.4;;;8.8;71.8
62980;BME280;49075;53.988;27.678;2022-10-17T04:44:10;995.5;;;8.8;71.9
62980;BME280;49075;53.988;27.678;2022-10-17T04:48:52;995.5;;;8.8;71.7
62980;BME280;49075;53.988;27.678;2022-10-17T04:54:02;995.6;;;8.7;72.4
62980;BME280;49075;53.988;27.678;2022-10-17T04:59:34;995.6;;;8.8;72.2
62980;BME280;49075;53.988;27.678;2022-10-17T05:04:34;995.7;;;8.8;72.3
62980;BME280;49075;53.988;27.678;2022-10-17T05:08:52;995.8;;;9;71.6
62980;BME280;49075;53.988;27.678;2022-10-17T05:14:01;995.8;;;9;72.1
62980;BME280;49075;53.988;27.678;2022-10-17T05:19:00;995.9;;;9;71.9
62980;BME280;49075;53.988;27.678;2022-10-17T05:24:36;995.9;;;9;72.4
62980;BME280;49075;53.988;27.678;2022-10-17T05:29:02;995.9;;;9.1;72
62980;BME280;49075;53.988;27.678;2022-10-17T05:34:34;996;;;9.1;72.3
62980;BME280;49075;53.988;27.678;2022-10-17T05:39:06;996;;;9.2;71.9
62980;BME280;49075;53.988;27.678;2022-10-17T05:44:32;996.1;;;9.2;72.5
62980;BME280;49075;53.988;27.678;2022-10-17T05:49:04;996.1;;;9.3;72
62980;BME280;49075;53.988;27.678;2022-10-17T05:54:32;996.1;;;9.3;72.5
62980;BME280;49075;53.988;27.678;2022-10-17T05:59:08;996.3;;;9.4;72.1
62980;BME280;49075;53.988;27.678;2022-10-17T06:04:32;996.4;;;9.4;72.7
62980;BME280;49075;53.988;27.678;2022-10-17T06:08:58;996.4;;;9.5;72.3
62980;BME280;49075;53.988;27.678;2022-10-17T06:14:06;996.5;;;9.4;72.9
62980;BME280;49075;53.988;27.678;2022-10-17T06:18:58;996.6;;;9.7;72
62980;BME280;49075;53.988;27.678;2022-10-17T06:24:02;996.7;;;9.8;72
62980;BME280;49075;53.988;27.678;2022-10-17T06:29:32;996.8;;;9.9;71.6
62980;BME280;49075;53.988;27.678;2022-10-17T06:34:32;996.9;;;9.9;72
62980;BME280;49075;53.988;27.678;2022-10-17T06:39:30;996.9;;;9.9;71.8
62980;BME280;49075;53.988;27.678;2022-10-17T06:44:30;996.9;;;10;72
62980;BME280;49075;53.988;27.678;2022-10-17T06:49:00;996.9;;;10;71.9
62980;BME280;49075;53.988;27.678;2022-10-17T06:54:00;997;;;10.1;72.1
62980;BME280;49075;53.988;27.678;2022-10-17T06:59:34;997;;;10.2;72.3
62980;BME280;49075;53.988;27.678;2022-10-17T07:04:00;997;;;10.3;72.6
62980;BME280;49075;53.988;27.678;2022-10-17T07:09:32;997.1;;;10.5;72.3
62980;BME280;49075;53.988;27.678;2022-10-17T07:14:00;997.2;;;10.5;73
62980;BME280;49075;53.988;27.678;2022-10-17T07:19:18;997.2;;;10.6;72.7
62980;BME280;49075;53.988;27.678;2022-10-17T07:23:52;997.3;;;10.6;73.4
62980;BME280;49075;53.988;27.678;2022-10-17T07:29:00;997.4;;;10.8;72.8
62980;BME280;49075;53.988;27.678;2022-10-17T07:34:02;997.4;;;10.9;73.2
62980;BME280;49075;53.988;27.678;2022-10-17T07:39:02;997.4;;;11;73.1
62980;BME280;49075;53.988;27.678;2022-10-17T07:44:00;997.4;;;10.9;74.3
62980;BME280;49075;53.988;27.678;2022-10-17T07:48:52;997.4;;;11;73.9
62980;BME280;49075;53.988;27.678;2022-10-17T07:54:00;997.5;;;11.1;74
62980;BME280;49075;53.988;27.678;2022-10-17T07:59:32;997.5;;;11.4;73.2
62980;BME280;49075;53.988;27.678;2022-10-17T08:04:02;997.5;;;11.6;73
62980;BME280;49075;53.988;27.678;2022-10-17T08:09:32;997.5;;;11.6;72.9
62980;BME280;49075;53.988;27.678;2022-10-17T08:14:00;997.5;;;11.6;73.6
62980;BME280;49075;53.988;27.678;2022-10-17T08:19:00;997.4;;;11.7;73.1
62980;BME280;49075;53.988;27.678;2022-10-17T08:24:10;997.4;;;11.8;73
62980;BME280;49075;53.988;27.678;2022-10-17T08:29:34;997.4;;;11.9;72.7
62980;BME280;49075;53.988;27.678;2022-10-17T08:34:00;997.4;;;12;72.7
62980;BME280;49075;53.988;27.678;2022-10-17T08:39:00;997.5;;;12.2;72.6
62980;BME280;49075;53.988;27.678;2022-10-17T08:44:02;997.5;;;12.3;72.7
62980;BME280;49075;53.988;27.678;2022-10-17T08:49:36;997.4;;;12.8;71.8
62980;BME280;49075;53.988;27.678;2022-10-17T08:54:37;997.4;;;14.6;68.7
62980;BME280;49075;53.988;27.678;2022-10-17T08:58:52;997.4;;;18;62.2
62980;BME280;49075;53.988;27.678;2022-10-17T09:04:17;997.5;;;19.1;57.4
62980;BME280;49075;53.988;27.678;2022-10-17T09:09:15;997.5;;;19.7;57.3
62980;BME280;49075;53.988;27.678;2022-10-17T09:14:04;997.6;;;19.3;56
62980;BME280;49075;53.988;27.678;2022-10-17T09:19:11;997.6;;;18.9;57
62980;BME280;49075;53.988;27.678;2022-10-17T09:24:37;997.6;;;18.4;56.9
62980;BME280;49075;53.988;27.678;2022-10-17T09:29:04;997.7;;;18.9;56.3
62980;BME280;49075;53.988;27.678;2022-10-17T09:34:34;997.7;;;18.9;55.3
62980;BME280;49075;53.988;27.678;2022-10-17T09:39:34;997.7;;;19.5;54.7
62980;BME280;49075;53.988;27.678;2022-10-17T09:44:08;997.6;;;21.1;51.5
62980;BME280;49075;53.988;27.678;2022-10-17T09:49:01;997.6;;;23;47.7
62980;BME280;49075;53.988;27.678;2022-10-17T09:54:39;997.6;;;24.4;44.2
62980;BME280;49075;53.988;27.678;2022-10-17T09:58:55;997.7;;;25.4;43.2
62980;BME280;49075;53.988;27.678;2022-10-17T10:04:08;997.7;;;26.6;40.4
62980;BME280;49075;53.988;27.678;2022-10-17T10:08:53;997.8;;;27.3;39.6
62980;BME280;49075;53.988;27.678;2022-10-17T10:14:09;997.7;;;27.3;37.4
62980;BME280;49075;53.988;27.678;2022-10-17T10:19:37;997.7;;;26.5;39
62980;BME280;49075;53.988;27.678;2022-10-17T10:24:02;997.6;;;26.2;38.2
62980;BME280;49075;53.988;27.678;2022-10-17T10:29:29;997.5;;;26.6;38.2
62980;BME280;49075;53.988;27.678;2022-10-17T10:33:52;997.5;;;26.9;37.5
62980;BME280;49075;53.988;27.678;2022-10-17T10:38:54;997.6;;;27.5;35.5
62980;BME280;49075;53.988;27.678;2022-10-17T10:44:35;997.7;;;27.6;35
62980;BME280;49075;53.988;27.678;2022-10-17T10:49:35;997.7;;;27.3;35
62980;BME280;49075;53.988;27.678;2022-10-17T10:54:35;997.7;;;28;34.6
62980;BME280;49075;53.988;27.678;2022-10-17T10:59:35;997.6;;;27.9;33.7
62980;BME280;49075;53.988;27.678;2022-10-17T11:04:35;997.6;;;27.2;33.7
62980;BME280;49075;53.988;27.678;2022-10-17T11:08:59;997.6;;;26.9;34.7
62980;BME280;49075;53.988;27.678;2022-10-17T11:14:09;997.6;;;26.1;35.3
62980;BME280;49075;53.988;27.678;2022-10-17T11:19:05;997.7;;;25.7;35.5
62980;BME280;49075;53.988;27.678;2022-10-17T11:24:02;997.8;;;24.2;36.9
62980;BME280;49075;53.988;27.678;2022-10-17T11:29:36;997.7;;;24;36.9
62980;BME280;49075;53.988;27.678;2022-10-17T11:34:35;997.7;;;24.4;36.1
62980;BME280;49075;53.988;27.678;2022-10-17T11:39:01;997.6;;;24.6;36.1
62980;BME280;49075;53.988;27.678;2022-10-17T11:44:19;997.5;;;24.2;36
62980;BME280;49075;53.988;27.678;2022-10-17T11:49:03;997.6;;;23.9;36.7
62980;BME280;49075;53.988;27.678;2022-10-17T11:54:21;997.5;;;23.5;36.9
62980;BME280;49075;53.988;27.678;2022-10-17T11:59:12;997.5;;;22.4;38.5
62980;BME280;49075;53.988;27.678;2022-10-17T12:04:01;997.5;;;21.7;39.3
62980;BME280;49075;53.988;27.678;2022-10-17T12:09:15;997.5;;;20.7;40.5
62980;BME280;49075;53.988;27.678;2022-10-17T12:14:46;997.6;;;20.1;42
62980;BME280;49075;53.988;27.678;2022-10-17T12:19:19;997.7;;;19.5;43
62980;BME280;49075;53.988;27.678;2022-10-17T12:24:32;997.7;;;19.1;43.7
62980;BME280;49075;53.988;27.678;2022-10-17T12:29:21;997.7;;;18.7;44.3
62980;BME280;49075;53.988;27.678;2022-10-17T12:34:30;997.7;;;18.4;45.2
62980;BME280;49075;53.988;27.678;2022-10-17T12:39:43;997.7;;;17.8;46.5
62980;BME280;49075;53.988;27.678;2022-10-17T12:43:56;997.7;;;17.5;46.8
62980;BME280;49075;53.988;27.678;2022-10-17T12:48:57;997.7;;;17.6;47.2
62980;BME280;49075;53.988;27.678;2022-10-17T12:53:57;997.6;;;17.6;47.2
62980;BME280;49075;53.988;27.678;2022-10-17T12:59:13;997.6;;;17.7;47.6
62980;BME280;49075;53.988;27.678;2022-10-17T13:04:02;997.6;;;17.6;47.5
62980;BME280;49075;53.988;27.678;2022-10-17T13:08:55;997.6;;;17.3;48.3
62980;BME280;49075;53.988;27.678;2022-10-17T13:14:09;997.7;;;17.2;48.2
62980;BME280;49075;53.988;27.678;2022-10-17T13:19:03;997.7;;;17.2;48.2
62980;BME280;49075;53.988;27.678;2022-10-17T13:24:00;997.8;;;17.2;47.8
62980;BME280;49075;53.988;27.678;2022-10-17T13:29:32;997.8;;;17;46.7
62980;BME280;49075;53.988;27.678;2022-10-17T13:33:54;997.8;;;17;46.7
62980;BME280;49075;53.988;27.678;2022-10-17T13:38:56;997.8;;;16.8;47.2
62980;BME280;49075;53.988;27.678;2022-10-17T13:44:09;997.8;;;16.8;47.4
62980;BME280;49075;53.988;27.678;2022-10-17T13:48:59;997.8;;;16.6;48
62980;BME280;49075;53.988;27.678;2022-10-17T13:54:35;997.7;;;16.5;47.7
62980;BME280;49075;53.988;27.678;2022-10-17T13:59:35;997.8;;;16.3;47.9
62980;BME280;49075;53.988;27.678;2022-10-17T14:04:10;997.8;;;16.3;48.3
62980;BME280;49075;53.988;27.678;2022-10-17T14:09:01;997.9;;;16.2;48.2
62980;BME280;49075;53.988;27.678;2022-10-17T14:13:52;998;;;16.2;48.7
62980;BME280;49075;53.988;27.678;2022-10-17T14:19:15;998;;;16.1;48.9
62980;BME280;49075;53.988;27.678;2022-10-17T14:24:27;998;;;16.1;49.2
62980;BME280;49075;53.988;27.678;2022-10-17T14:29:48;998;;;16;49.4
62980;BME280;49075;53.988;27.678;2022-10-17T14:34:33;998;;;15.9;50
62980;BME280;49075;53.988;27.678;2022-10-17T14:39:03;998;;;15.7;50.3
62980;BME280;49075;53.988;27.678;2022-10-17T14:44:04;998;;;15.5;51
62980;BME280;49075;53.988;27.678;2022-10-17T14:48:53;998;;;15.3;51.5
62980;BME280;49075;53.988;27.678;2022-10-17T14:54:17;997.9;;;15.1;52
62980;BME280;49075;53.988;27.678;2022-10-17T14:59:00;998;;;14.9;52.5
62980;BME280;49075;53.988;27.678;2022-10-17T15:04:02;998;;;14.8;53.3
62980;BME280;49075;53.988;27.678;2022-10-17T15:08:52;997.9;;;14.6;53.7
62980;BME280;49075;53.988;27.678;2022-10-17T15:14:04;997.9;;;14.4;54.6
62980;BME280;49075;53.988;27.678;2022-10-17T15:19:02;997.9;;;14.2;55
62980;BME280;49075;53.988;27.678;2022-10-17T15:23:58;998;;;14.1;55.7
62980;BME280;49075;53.988;27.678;2022-10-17T15:29:02;998;;;13.9;55.7
62980;BME280;49075;53.988;27.678;2022-10-17T15:34:08;998;;;13.8;56.2
62980;BME280;49075;53.988;27.678;2022-10-17T15:39:34;998;;;13.7;56.4
62980;BME280;49075;53.988;27.678;2022-10-17T15:44:00;998.1;;;13.5;57.4
62980;BME280;49075;53.988;27.678;2022-10-17T15:49:34;998.1;;;13.3;57.7
62980;BME280;49075;53.988;27.678;2022-10-17T15:54:02;998.2;;;13.2;58.8
62980;BME280;49075;53.988;27.678;2022-10-17T15:59:02;998.2;;;13;58.9
62980;BME280;49075;53.988;27.678;2022-10-17T16:04:02;998.1;;;12.8;59.9
62980;BME280;49075;53.988;27.678;2022-10-17T16:09:30;998.1;;;12.7;60.1
62980;BME280;49075;53.988;27.678;2022-10-17T16:14:05;998.1;;;12.6;60.7
62980;BME280;49075;53.988;27.678;2022-10-17T16:18:58;998.1;;;12.5;60.6
62980;BME280;49075;53.988;27.678;2022-10-17T16:24:02;998.1;;;12.3;61.4
62980;BME280;49075;53.988;27.678;2022-10-17T16:28:52;998.1;;;12.2;61.4
62980;BME280;49075;53.988;27.678;2022-10-17T16:34:34;998.1;;;12.2;61.7
62980;BME280;49075;53.988;27.678;2022-10-17T16:39:04;998;;;12.1;62.2
62980;BME280;49075;53.988;27.678;2022-10-17T16:44:14;998.1;;;12.2;61.7
62980;BME280;49075;53.988;27.678;2022-10-17T16:49:20;998.1;;;12.2;61.6
62980;BME280;49075;53.988;27.678;2022-10-17T16:54:04;998;;;12.1;62.2
62980;BME280;49075;53.988;27.678;2022-10-17T16:59:34;998.1;;;12;62.3
62980;BME280;49075;53.988;27.678;2022-10-17T17:03:58;998.1;;;12;62.4
62980;BME280;49075;53.988;27.678;2022-10-17T17:09:14;998.1;;;11.9;62.9
62980;BME280;49075;53.988;27.678;2022-10-17T17:14:16;998.1;;;11.7;63
62980;BME280;49075;53.988;27.678;2022-10-17T17:18:57;998.2;;;11.6;63.6
62980;BME280;49075;53.988;27.678;2022-10-17T17:24:08;998.2;;;11.5;63.5
62980;BME280;49075;53.988;27.678;2022-10-17T17:28:58;998.2;;;11.6;63.5
62980;BME280;49075;53.988;27.678;2022-10-17T17:34:04;998.2;;;11.5;63.6
62980;BME280;49075;53.988;27.678;2022-10-17T17:39:03;998.2;;;11.3;64.3
62980;BME280;49075;53.988;27.678;2022-10-17T17:44:32;998.2;;;11.1;64.3
62980;BME280;49075;53.988;27.678;2022-10-17T17:49:32;998.1;;;11;65.2
62980;BME280;49075;53.988;27.678;2022-10-17T17:54:32;998.1;;;10.8;65.1
62980;BME280;49075;53.988;27.678;2022-10-17T17:58:53;998.2;;;10.7;65.9
62980;BME280;49075;53.988;27.678;2022-10-17T18:04:34;998.1;;;10.7;65.9
62980;BME280;49075;53.988;27.678;2022-10-17T18:09:32;998.1;;;10.6;66.3
62980;BME280;49075;53.988;27.678;2022-10-17T18:14:34;998;;;10.5;66.4
62980;BME280;49075;53.988;27.678;2022-10-17T18:19:10;998.1;;;10.4;67.3
62980;BME280;49075;53.988;27.678;2022-10-17T18:24:04;998.1;;;10.4;66.9
62980;BME280;49075;53.988;27.678;2022-10-17T18:29:04;998.1;;;10.4;67.6
62980;BME280;49075;53.988;27.678;2022-10-17T18:34:32;998.2;;;10.3;67.7
62980;BME280;49075;53.988;27.678;2022-10-17T18:39:32;998.2;;;10.3;68
62980;BME280;49075;53.988;27.678;2022-10-17T18:44:34;998.1;;;10.2;67.9
62980;BME280;49075;53.988;27.678;2022-10-17T18:49:02;998.1;;;10;69.3
62980;BME280;49075;53.988;27.678;2022-10-17T18:54:07;998.1;;;10;69.1
62980;BME280;49075;53.988;27.678;2022-10-17T18:59:04;998.2;;;10;69.6
62980;BME280;49075;53.988;27.678;2022-10-17T19:04:12;998.1;;;10.1;69.2
62980;BME280;49075;53.988;27.678;2022-10-17T19:09:32;998.1;;;10.1;69.6
62980;BME280;49075;53.988;27.678;2022-10-17T19:14:12;998.1;;;10;69.5
62980;BME280;49075;53.988;27.678;2022-10-17T19:19:06;998.1;;;10;70.2
62980;BME280;49075;53.988;27.678;2022-10-17T19:24:32;998;;;10;69.6
62980;BME280;49075;53.988;27.678;2022-10-17T19:29:21;998;;;10;70.2
62980;BME280;49075;53.988;27.678;2022-10-17T19:34:34;998;;;10;70.3
62980;BME280;49075;53.988;27.678;2022-10-17T19:38:51;997.9;;;10;70.5
62980;BME280;49075;53.988;27.678;2022-10-17T19:43:52;997.9;;;10;70.7
62980;BME280;49075;53.988;27.678;2022-10-17T19:49:16;997.8;;;10.1;70.1
62980;BME280;49075;53.988;27.678;2022-10-17T19:54:32;997.8;;;10.1;70.2
62980;BME280;49075;53.988;27.678;2022-10-17T19:59:00;997.8;;;10.1;70.2
62980;BME280;49075;53.988;27.678;2022-10-17T20:04:00;997.7;;;10.2;69.8
62980;BME280;49075;53.988;27.678;2022-10-17T20:09:10;997.7;;;10.1;70
62980;BME280;49075;53.988;27.678;2022-10-17T20:14:16;997.6;;;10.1;69.8
62980;BME280;49075;53.988;27.678;2022-10-17T20:19:01;997.5;;;10;70.8
62980;BME280;49075;53.988;27.678;2022-10-17T20:24:05;997.4;;;10.1;70.8
62980;BME280;49075;53.988;27.678;2022-10-17T20:28:59;997.5;;;10.1;70.8
62980;BME280;49075;53.988;27.678;2022-10-17T20:34:13;997.4;;;10.1;71.4
62980;BME280;49075;53.988;27.678;2022-10-17T20:39:30;997.4;;;10.2;71
62980;BME280;49075;53.988;27.678;2022-10-17T20:44:05;997.4;;;10.2;71.4
62980;BME280;49075;53.988;27.678;2022-10-17T20:49:00;997.4;;;10.3;71
62980;BME280;49075;53.988;27.678;2022-10-17T20:54:34;997.3;;;10.3;71.3
62980;BME280;49075;53.988;27.678;2022-10-17T20:59:34;997.3;;;10.5;71.1
62980;BME280;49075;53.988;27.678;2022-10-17T21:04:24;997.2;;;10.5;71.5
62980;BME280;49075;53.988;27.678;2022-10-17T21:09:10;997.2;;;10.6;71
62980;BME280;49075;53.988;27.678;2022-10-17T21:14:12;997.1;;;10.6;71.9
62980;BME280;49075;53.988;27.678;2022-10-17T21:19:08;997;;;10.6;71.7
62980;BME280;49075;53.988;27.678;2022-10-17T21:24:34;997;;;10.7;71.9
62980;BME280;49075;53.988;27.678;2022-10-17T21:29:34;997;;;10.7;71.9
62980;BME280;49075;53.988;27.678;2022-10-17T21:33:59;996.9;;;10.8;72.6
62980;BME280;49075;53.988;27.678;2022-10-17T21:39:11;996.8;;;10.9;72
62980;BME280;49075;53.988;27.678;2022-10-17T21:44:01;996.7;;;10.9;72.2
62980;BME280;49075;53.988;27.678;2022-10-17T21:49:05;996.5;;;11;72.1
62980;BME280;49075;53.988;27.678;2022-10-17T21:54:13;996.5;;;11.1;72.1
62980;BME280;49075;53.988;27.678;2022-10-17T21:59:34;996.5;;;11.2;72.4
62980;BME280;49075;53.988;27.678;2022-10-17T22:04:18;996.3;;;11.1;72.3
62980;BME280;49075;53.988;27.678;2022-10-17T22:08:57;996.2;;;11;73.3
62980;BME280;49075;53.988;27.678;2022-10-17T22:14:13;996.1;;;11;73.5
62980;BME280;49075;53.988;27.678;2022-10-17T22:19:13;996.1;;;10.9;74.7
62980;BME280;49075;53.988;27.678;2022-10-17T22:23:55;996;;;10.8;74.9
62980;BME280;49075;53.988;27.678;2022-10-17T22:29:13;995.9;;;10.7;75.6
62980;BME280;49075;53.988;27.678;2022-10-17T22:34:13;995.8;;;10.7;75.8
62980;BME280;49075;53.988;27.678;2022-10-17T22:39:10;995.8;;;10.6;76.9
62980;BME280;49075;53.988;27.678;2022-10-17T22:44:34;995.7;;;10.6;76.5
62980;BME280;49075;53.988;27.678;2022-10-17T22:49:34;995.6;;;10.8;76.7
62980;BME280;49075;53.988;27.678;2022-10-17T22:54:34;995.6;;;10.8;76.6
62980;BME280;49075;53.988;27.678;2022-10-17T22:59:34;995.5;;;10.8;76.8
62980;BME280;49075;53.988;27.678;2022-10-17T23:03:52;995.4;;;10.7;77
62980;BME280;49075;53.988;27.678;2022-10-17T23:09:32;995.4;;;10.7;77.4
62980;BME280;49075;53.988;27.678;2022-10-17T23:13:52;995.3;;;10.7;77.9
62980;BME280;49075;53.988;27.678;2022-10-17T23:19:00;995.2;;;10.7;78.5
62980;BME280;49075;53.988;27.678;2022-10-17T23:24:00;995.2;;;10.8;78.2
62980;BME280;49075;53.988;27.678;2022-10-17T23:29:04;995.1;;;10.8;79
62980;BME280;49075;53.988;27.678;2022-10-17T23:34:28;995.1;;;10.8;79.3
62980;BME280;49075;53.988;27.678;2022-10-17T23:39:07;994.9;;;10.7;80.4
62980;BME280;49075;53.988;27.678;2022-10-17T23:43:56;994.8;;;10.8;80.2
62980;BME280;49075;53.988;27.678;2022-10-17T23:49:28;994.6;;;10.7;80.9
62980;BME280;49075;53.988;27.678;2022-10-17T23:54:28;994.6;;;10.7;80.9
62980;BME280;49075;53.988;27.678;2022-10-17T23:59:28;994.5;;;10.8;80.5
